sensor_id;sensor_type;location;lat;lon;timestamp;temperature;humidity
47618;DHT22;33336;36.728;-4.414;2024-02-26T00:02:15;17.80;98.40
47618;DHT22;33336;36.728;-4.414;2024-02-26T00:07:19;17.70;99.20
47618;DHT22;33336;36.728;-4.414;2024-02-26T00:12:23;17.50;99.90
47618;DHT22;33336;36.728;-4.414;2024-02-26T00:17:27;17.30;99.90
47618;DHT22;33336;36.728;-4.414;2024-02-26T00:22:29;17.10;99.90
47618;DHT22;33336;36.728;-4.414;2024-02-26T00:27:34;17.10;99.90
47618;DHT22;33336;36.728;-4.414;2024-02-26T00:32:37;17.20;99.90
47618;DHT22;33336;36.728;-4.414;2024-02-26T00:37:41;17.10;99.90
47618;DHT22;33336;36.728;-4.414;2024-02-26T00:42:45;17.70;99.90
47618;DHT22;33336;36.728;-4.414;2024-02-26T00:47:50;18.30;99.80
47618;DHT22;33336;36.728;-4.414;2024-02-26T00:52:52;18.30;98.70
47618;DHT22;33336;36.728;-4.414;2024-02-26T00:57:57;18.30;98.40
47618;DHT22;33336;36.728;-4.414;2024-02-26T01:03:00;18.10;98.70
47618;DHT22;33336;36.728;-4.414;2024-02-26T01:08:05;18.20;98.90
47618;DHT22;33336;36.728;-4.414;2024-02-26T01:13:09;17.90;99.30
47618;DHT22;33336;36.728;-4.414;2024-02-26T01:18:12;17.30;99.80
47618;DHT22;33336;36.728;-4.414;2024-02-26T01:23:15;17.90;99.20
47618;DHT22;33336;36.728;-4.414;2024-02-26T01:28:21;17.30;99.40
47618;DHT22;33336;36.728;-4.414;2024-02-26T01:33:24;17.50;99.00
47618;DHT22;33336;36.728;-4.414;2024-02-26T01:38:28;17.30;98.70
47618;DHT22;33336;36.728;-4.414;2024-02-26T01:43:32;17.50;98.10
47618;DHT22;33336;36.728;-4.414;2024-02-26T01:48:34;17.30;98.10
47618;DHT22;33336;36.728;-4.414;2024-02-26T01:53:37;17.30;97.60
47618;DHT22;33336;36.728;-4.414;2024-02-26T01:58:43;17.50;97.30
47618;DHT22;33336;36.728;-4.414;2024-02-26T02:03:46;17.70;97.10
47618;DHT22;33336;36.728;-4.414;2024-02-26T02:08:50;17.40;97.00
47618;DHT22;33336;36.728;-4.414;2024-02-26T02:13:54;17.40;97.10
47618;DHT22;33336;36.728;-4.414;2024-02-26T02:18:58;17.30;97.40
47618;DHT22;33336;36.728;-4.414;2024-02-26T02:24:02;17.70;97.20
47618;DHT22;33336;36.728;-4.414;2024-02-26T02:29:07;17.90;96.90
47618;DHT22;33336;36.728;-4.414;2024-02-26T02:34:10;18.00;96.90
47618;DHT22;33336;36.728;-4.414;2024-02-26T02:39:15;18.00;96.90
47618;DHT22;33336;36.728;-4.414;2024-02-26T02:44:18;18.00;96.60
47618;DHT22;33336;36.728;-4.414;2024-02-26T02:49:21;17.70;96.80
47618;DHT22;33336;36.728;-4.414;2024-02-26T02:54:26;18.00;96.50
47618;DHT22;33336;36.728;-4.414;2024-02-26T02:59:29;18.20;96.20
47618;DHT22;33336;36.728;-4.414;2024-02-26T03:04:33;18.00;96.50
47618;DHT22;33336;36.728;-4.414;2024-02-26T03:09:37;17.60;96.40
47618;DHT22;33336;36.728;-4.414;2024-02-26T03:14:40;18.20;96.20
47618;DHT22;33336;36.728;-4.414;2024-02-26T03:19:44;18.20;96.00
47618;DHT22;33336;36.728;-4.414;2024-02-26T03:24:49;17.40;97.90
47618;DHT22;33336;36.728;-4.414;2024-02-26T03:29:52;16.90;99.90
47618;DHT22;33336;36.728;-4.414;2024-02-26T03:34:55;17.10;99.90
47618;DHT22;33336;36.728;-4.414;2024-02-26T03:40:00;17.20;99.90
47618;DHT22;33336;36.728;-4.414;2024-02-26T03:45:05;17.00;99.90
47618;DHT22;33336;36.728;-4.414;2024-02-26T03:50:09;17.60;99.90
47618;DHT22;33336;36.728;-4.414;2024-02-26T03:55:13;17.80;99.70
47618;DHT22;33336;36.728;-4.414;2024-02-26T04:00:17;17.70;99.70
47618;DHT22;33336;36.728;-4.414;2024-02-26T04:05:20;17.40;99.90
47618;DHT22;33336;36.728;-4.414;2024-02-26T04:10:25;18.00;99.90
47618;DHT22;33336;36.728;-4.414;2024-02-26T04:15:28;18.20;99.90
47618;DHT22;33336;36.728;-4.414;2024-02-26T04:20:31;18.30;99.90
47618;DHT22;33336;36.728;-4.414;2024-02-26T04:25:35;18.40;99.90
47618;DHT22;33336;36.728;-4.414;2024-02-26T04:30:38;18.40;99.80
47618;DHT22;33336;36.728;-4.414;2024-02-26T04:35:41;18.40;99.90
47618;DHT22;33336;36.728;-4.414;2024-02-26T04:40:46;18.50;99.70
47618;DHT22;33336;36.728;-4.414;2024-02-26T04:45:49;18.40;99.60
47618;DHT22;33336;36.728;-4.414;2024-02-26T04:50:52;18.60;99.50
47618;DHT22;33336;36.728;-4.414;2024-02-26T04:55:57;18.40;99.50
47618;DHT22;33336;36.728;-4.414;2024-02-26T05:01:01;18.50;99.50
47618;DHT22;33336;36.728;-4.414;2024-02-26T05:06:05;18.40;99.30
47618;DHT22;33336;36.728;-4.414;2024-02-26T05:11:10;18.20;99.40
47618;DHT22;33336;36.728;-4.414;2024-02-26T05:16:13;18.10;99.50
47618;DHT22;33336;36.728;-4.414;2024-02-26T05:21:15;18.50;99.10
47618;DHT22;33336;36.728;-4.414;2024-02-26T05:26:23;18.60;98.80
47618;DHT22;33336;36.728;-4.414;2024-02-26T05:31:27;18.80;98.60
47618;DHT22;33336;36.728;-4.414;2024-02-26T05:36:30;18.60;98.60
47618;DHT22;33336;36.728;-4.414;2024-02-26T05:41:36;18.60;98.20
47618;DHT22;33336;36.728;-4.414;2024-02-26T05:46:38;18.80;98.00
47618;DHT22;33336;36.728;-4.414;2024-02-26T05:51:41;18.60;98.10
47618;DHT22;33336;36.728;-4.414;2024-02-26T05:56:45;18.50;98.10
47618;DHT22;33336;36.728;-4.414;2024-02-26T06:01:48;18.70;98.00
47618;DHT22;33336;36.728;-4.414;2024-02-26T06:06:52;18.50;97.90
47618;DHT22;33336;36.728;-4.414;2024-02-26T06:11:57;18.70;97.70
47618;DHT22;33336;36.728;-4.414;2024-02-26T06:16:59;18.70;97.50
47618;DHT22;33336;36.728;-4.414;2024-02-26T06:22:02;18.50;97.60
47618;DHT22;33336;36.728;-4.414;2024-02-26T06:27:09;18.60;97.50
47618;DHT22;33336;36.728;-4.414;2024-02-26T06:32:13;18.50;97.60
47618;DHT22;33336;36.728;-4.414;2024-02-26T06:37:16;17.50;98.00
47618;DHT22;33336;36.728;-4.414;2024-02-26T06:42:21;16.90;99.90
47618;DHT22;33336;36.728;-4.414;2024-02-26T06:47:24;16.40;99.90
47618;DHT22;33336;36.728;-4.414;2024-02-26T06:52:27;16.30;99.90
47618;DHT22;33336;36.728;-4.414;2024-02-26T06:57:32;17.00;99.90
47618;DHT22;33336;36.728;-4.414;2024-02-26T07:02:39;17.30;99.90
47618;DHT22;33336;36.728;-4.414;2024-02-26T07:07:44;17.20;99.90
47618;DHT22;33336;36.728;-4.414;2024-02-26T07:12:50;17.80;99.90
47618;DHT22;33336;36.728;-4.414;2024-02-26T07:17:52;17.60;99.90
47618;DHT22;33336;36.728;-4.414;2024-02-26T07:22:56;17.60;99.90
47618;DHT22;33336;36.728;-4.414;2024-02-26T07:28:00;17.40;99.90
47618;DHT22;33336;36.728;-4.414;2024-02-26T07:33:04;17.40;99.90
47618;DHT22;33336;36.728;-4.414;2024-02-26T07:38:06;17.50;99.90
47618;DHT22;33336;36.728;-4.414;2024-02-26T07:43:11;17.00;99.90
47618;DHT22;33336;36.728;-4.414;2024-02-26T07:48:13;17.00;99.90
47618;DHT22;33336;36.728;-4.414;2024-02-26T07:53:17;16.40;99.90
47618;DHT22;33336;36.728;-4.414;2024-02-26T07:58:22;16.80;99.90
47618;DHT22;33336;36.728;-4.414;2024-02-26T08:03:26;17.20;99.90
47618;DHT22;33336;36.728;-4.414;2024-02-26T08:08:31;17.10;99.90
47618;DHT22;33336;36.728;-4.414;2024-02-26T08:13:36;17.60;99.90
47618;DHT22;33336;36.728;-4.414;2024-02-26T08:18:38;16.90;99.90
47618;DHT22;33336;36.728;-4.414;2024-02-26T08:23:43;16.60;99.90
47618;DHT22;33336;36.728;-4.414;2024-02-26T08:28:47;16.50;99.90
47618;DHT22;33336;36.728;-4.414;2024-02-26T08:33:50;16.60;99.90
47618;DHT22;33336;36.728;-4.414;2024-02-26T08:38:53;15.80;99.90
47618;DHT22;33336;36.728;-4.414;2024-02-26T08:43:58;15.40;99.90
47618;DHT22;33336;36.728;-4.414;2024-02-26T08:49:00;15.70;99.90
47618;DHT22;33336;36.728;-4.414;2024-02-26T08:54:04;15.40;99.90
47618;DHT22;33336;36.728;-4.414;2024-02-26T08:59:09;15.50;99.90
47618;DHT22;33336;36.728;-4.414;2024-02-26T09:04:12;15.10;99.90
47618;DHT22;33336;36.728;-4.414;2024-02-26T09:09:19;14.00;99.90
47618;DHT22;33336;36.728;-4.414;2024-02-26T09:14:24;14.10;99.90
47618;DHT22;33336;36.728;-4.414;2024-02-26T09:19:27;14.50;99.90
47618;DHT22;33336;36.728;-4.414;2024-02-26T09:24:30;14.40;99.90
47618;DHT22;33336;36.728;-4.414;2024-02-26T09:29:35;14.40;99.90
47618;DHT22;33336;36.728;-4.414;2024-02-26T09:34:40;14.70;99.90
47618;DHT22;33336;36.728;-4.414;2024-02-26T09:39:42;14.90;99.90
47618;DHT22;33336;36.728;-4.414;2024-02-26T09:44:51;14.80;99.90
47618;DHT22;33336;36.728;-4.414;2024-02-26T09:49:56;14.80;99.90
47618;DHT22;33336;36.728;-4.414;2024-02-26T09:54:59;14.60;99.90
47618;DHT22;33336;36.728;-4.414;2024-02-26T10:00:08;14.60;99.90
47618;DHT22;33336;36.728;-4.414;2024-02-26T10:05:14;14.90;99.90
47618;DHT22;33336;36.728;-4.414;2024-02-26T10:10:19;14.60;99.90
47618;DHT22;33336;36.728;-4.414;2024-02-26T10:15:24;14.70;99.90
47618;DHT22;33336;36.728;-4.414;2024-02-26T10:20:26;14.40;99.90
47618;DHT22;33336;36.728;-4.414;2024-02-26T10:25:30;14.40;99.90
47618;DHT22;33336;36.728;-4.414;2024-02-26T10:30:37;14.50;99.90
47618;DHT22;33336;36.728;-4.414;2024-02-26T10:35:45;14.90;99.90
47618;DHT22;33336;36.728;-4.414;2024-02-26T10:40:49;14.70;99.90
47618;DHT22;33336;36.728;-4.414;2024-02-26T10:45:55;14.70;99.90
47618;DHT22;33336;36.728;-4.414;2024-02-26T10:50:57;14.50;99.40
47618;DHT22;33336;36.728;-4.414;2024-02-26T10:56:04;14.90;98.60
47618;DHT22;33336;36.728;-4.414;2024-02-26T11:01:09;15.30;97.80
47618;DHT22;33336;36.728;-4.414;2024-02-26T11:06:13;15.40;97.10
47618;DHT22;33336;36.728;-4.414;2024-02-26T11:11:18;15.70;96.90
47618;DHT22;33336;36.728;-4.414;2024-02-26T11:16:24;16.10;96.30
47618;DHT22;33336;36.728;-4.414;2024-02-26T11:21:28;16.30;95.30
47618;DHT22;33336;36.728;-4.414;2024-02-26T11:26:43;16.40;94.50
47618;DHT22;33336;36.728;-4.414;2024-02-26T11:31:52;16.20;94.80
47618;DHT22;33336;36.728;-4.414;2024-02-26T11:36:56;16.40;94.40
47618;DHT22;33336;36.728;-4.414;2024-02-26T11:42:05;16.40;94.20
47618;DHT22;33336;36.728;-4.414;2024-02-26T11:47:18;16.30;93.70
47618;DHT22;33336;36.728;-4.414;2024-02-26T11:52:21;16.60;93.80
47618;DHT22;33336;36.728;-4.414;2024-02-26T11:57:26;16.40;93.00
47618;DHT22;33336;36.728;-4.414;2024-02-26T12:02:44;16.50;93.00
47618;DHT22;33336;36.728;-4.414;2024-02-26T12:07:49;16.30;93.40
47618;DHT22;33336;36.728;-4.414;2024-02-26T12:12:58;16.80;93.40
47618;DHT22;33336;36.728;-4.414;2024-02-26T12:18:06;16.90;93.30
47618;DHT22;33336;36.728;-4.414;2024-02-26T12:23:15;16.80;93.00
47618;DHT22;33336;36.728;-4.414;2024-02-26T12:28:19;16.90;92.50
47618;DHT22;33336;36.728;-4.414;2024-02-26T12:33:23;17.70;91.70
47618;DHT22;33336;36.728;-4.414;2024-02-26T12:38:27;17.40;90.80
47618;DHT22;33336;36.728;-4.414;2024-02-26T12:43:31;17.50;91.40
47618;DHT22;33336;36.728;-4.414;2024-02-26T12:48:35;17.70;91.40
47618;DHT22;33336;36.728;-4.414;2024-02-26T12:53:39;18.10;91.60
47618;DHT22;33336;36.728;-4.414;2024-02-26T12:58:42;17.90;90.80
47618;DHT22;33336;36.728;-4.414;2024-02-26T13:03:49;18.20;90.20
47618;DHT22;33336;36.728;-4.414;2024-02-26T13:08:56;17.80;90.90
47618;DHT22;33336;36.728;-4.414;2024-02-26T13:14:01;18.00;91.90
47618;DHT22;33336;36.728;-4.414;2024-02-26T13:19:14;17.30;92.90
47618;DHT22;33336;36.728;-4.414;2024-02-26T13:24:19;17.50;92.60
47618;DHT22;33336;36.728;-4.414;2024-02-26T13:29:22;17.20;92.10
47618;DHT22;33336;36.728;-4.414;2024-02-26T13:34:29;16.90;92.90
47618;DHT22;33336;36.728;-4.414;2024-02-26T13:39:33;17.50;93.20
47618;DHT22;33336;36.728;-4.414;2024-02-26T13:44:36;17.20;92.30
47618;DHT22;33336;36.728;-4.414;2024-02-26T13:49:42;18.20;91.90
47618;DHT22;33336;36.728;-4.414;2024-02-26T13:54:45;17.60;92.00
47618;DHT22;33336;36.728;-4.414;2024-02-26T13:59:48;18.40;92.00
47618;DHT22;33336;36.728;-4.414;2024-02-26T14:04:54;18.90;90.90
47618;DHT22;33336;36.728;-4.414;2024-02-26T14:09:57;19.10;86.80
47618;DHT22;33336;36.728;-4.414;2024-02-26T14:15:00;18.60;86.40
47618;DHT22;33336;36.728;-4.414;2024-02-26T14:20:08;18.50;85.60
47618;DHT22;33336;36.728;-4.414;2024-02-26T14:25:11;19.20;85.20
47618;DHT22;33336;36.728;-4.414;2024-02-26T14:30:14;18.80;83.50
47618;DHT22;33336;36.728;-4.414;2024-02-26T14:35:19;19.50;83.60
47618;DHT22;33336;36.728;-4.414;2024-02-26T14:40:21;19.30;82.90
47618;DHT22;33336;36.728;-4.414;2024-02-26T14:45:24;19.40;81.00
47618;DHT22;33336;36.728;-4.414;2024-02-26T14:50:28;19.50;82.10
47618;DHT22;33336;36.728;-4.414;2024-02-26T14:55:32;18.80;81.70
47618;DHT22;33336;36.728;-4.414;2024-02-26T15:00:35;18.80;83.70
47618;DHT22;33336;36.728;-4.414;2024-02-26T15:05:40;19.50;82.90
47618;DHT22;33336;36.728;-4.414;2024-02-26T15:10:42;20.00;81.60
47618;DHT22;33336;36.728;-4.414;2024-02-26T15:15:49;19.70;81.10
47618;DHT22;33336;36.728;-4.414;2024-02-26T15:20:53;18.90;81.50
47618;DHT22;33336;36.728;-4.414;2024-02-26T15:25:57;17.50;80.60
47618;DHT22;33336;36.728;-4.414;2024-02-26T15:31:00;17.10;79.80
47618;DHT22;33336;36.728;-4.414;2024-02-26T15:36:05;16.60;81.70
47618;DHT22;33336;36.728;-4.414;2024-02-26T15:41:11;16.70;82.70
47618;DHT22;33336;36.728;-4.414;2024-02-26T15:46:15;17.20;84.20
47618;DHT22;33336;36.728;-4.414;2024-02-26T15:51:21;17.30;85.00
47618;DHT22;33336;36.728;-4.414;2024-02-26T15:56:25;19.20;82.90
47618;DHT22;33336;36.728;-4.414;2024-02-26T16:01:28;20.80;80.30
47618;DHT22;33336;36.728;-4.414;2024-02-26T16:06:36;18.60;84.60
47618;DHT22;33336;36.728;-4.414;2024-02-26T16:11:40;18.70;84.00
47618;DHT22;33336;36.728;-4.414;2024-02-26T16:16:52;18.40;85.50
47618;DHT22;33336;36.728;-4.414;2024-02-26T16:21:58;19.60;84.70
47618;DHT22;33336;36.728;-4.414;2024-02-26T16:27:02;18.80;83.10
47618;DHT22;33336;36.728;-4.414;2024-02-26T16:32:05;18.00;82.50
47618;DHT22;33336;36.728;-4.414;2024-02-26T16:37:11;19.40;80.00
47618;DHT22;33336;36.728;-4.414;2024-02-26T16:42:14;19.60;79.00
47618;DHT22;33336;36.728;-4.414;2024-02-26T16:47:18;21.10;77.80
47618;DHT22;33336;36.728;-4.414;2024-02-26T16:52:22;21.40;76.50
47618;DHT22;33336;36.728;-4.414;2024-02-26T16:57:26;20.50;76.00
47618;DHT22;33336;36.728;-4.414;2024-02-26T17:02:29;20.70;76.00
47618;DHT22;33336;36.728;-4.414;2024-02-26T17:07:33;19.20;77.40
47618;DHT22;33336;36.728;-4.414;2024-02-26T17:12:36;19.40;77.20
47618;DHT22;33336;36.728;-4.414;2024-02-26T17:17:42;18.60;77.60
47618;DHT22;33336;36.728;-4.414;2024-02-26T17:22:46;18.80;77.10
47618;DHT22;33336;36.728;-4.414;2024-02-26T17:27:49;18.20;77.70
47618;DHT22;33336;36.728;-4.414;2024-02-26T17:32:52;17.50;79.00
47618;DHT22;33336;36.728;-4.414;2024-02-26T17:37:56;17.60;78.30
47618;DHT22;33336;36.728;-4.414;2024-02-26T17:43:01;17.80;78.90
47618;DHT22;33336;36.728;-4.414;2024-02-26T17:48:06;17.40;78.70
47618;DHT22;33336;36.728;-4.414;2024-02-26T17:53:10;17.00;82.50
47618;DHT22;33336;36.728;-4.414;2024-02-26T17:58:15;16.90;83.20
47618;DHT22;33336;36.728;-4.414;2024-02-26T18:03:19;16.90;84.00
47618;DHT22;33336;36.728;-4.414;2024-02-26T18:08:23;16.50;85.00
47618;DHT22;33336;36.728;-4.414;2024-02-26T18:13:26;16.10;86.70
47618;DHT22;33336;36.728;-4.414;2024-02-26T18:18:30;15.60;88.10
47618;DHT22;33336;36.728;-4.414;2024-02-26T18:23:34;15.50;88.80
47618;DHT22;33336;36.728;-4.414;2024-02-26T18:28:38;15.30;90.10
47618;DHT22;33336;36.728;-4.414;2024-02-26T18:33:41;15.20;89.90
47618;DHT22;33336;36.728;-4.414;2024-02-26T18:38:45;15.10;89.60
47618;DHT22;33336;36.728;-4.414;2024-02-26T18:43:49;15.50;87.20
47618;DHT22;33336;36.728;-4.414;2024-02-26T18:48:53;15.40;87.50
47618;DHT22;33336;36.728;-4.414;2024-02-26T18:53:57;15.70;87.10
47618;DHT22;33336;36.728;-4.414;2024-02-26T18:59:00;15.70;85.80
47618;DHT22;33336;36.728;-4.414;2024-02-26T19:04:03;15.30;86.20
47618;DHT22;33336;36.728;-4.414;2024-02-26T19:09:08;15.50;86.20
47618;DHT22;33336;36.728;-4.414;2024-02-26T19:14:11;15.50;85.60
47618;DHT22;33336;36.728;-4.414;2024-02-26T19:19:15;15.50;86.00
47618;DHT22;33336;36.728;-4.414;2024-02-26T19:24:19;15.50;86.40
47618;DHT22;33336;36.728;-4.414;2024-02-26T19:29:22;15.70;86.10
47618;DHT22;33336;36.728;-4.414;2024-02-26T19:34:26;15.50;86.80
47618;DHT22;33336;36.728;-4.414;2024-02-26T19:39:30;15.50;86.30
47618;DHT22;33336;36.728;-4.414;2024-02-26T19:44:33;15.50;86.50
47618;DHT22;33336;36.728;-4.414;2024-02-26T19:49:36;15.70;86.40
47618;DHT22;33336;36.728;-4.414;2024-02-26T19:54:40;15.50;87.00
47618;DHT22;33336;36.728;-4.414;2024-02-26T19:59:44;15.30;86.60
47618;DHT22;33336;36.728;-4.414;2024-02-26T20:04:47;15.20;86.40
47618;DHT22;33336;36.728;-4.414;2024-02-26T20:09:51;15.10;86.60
47618;DHT22;33336;36.728;-4.414;2024-02-26T20:14:53;15.00;87.10
47618;DHT22;33336;36.728;-4.414;2024-02-26T20:19:57;15.10;87.40
47618;DHT22;33336;36.728;-4.414;2024-02-26T20:25:01;15.00;87.60
47618;DHT22;33336;36.728;-4.414;2024-02-26T20:30:06;14.80;87.90
47618;DHT22;33336;36.728;-4.414;2024-02-26T20:35:09;14.80;87.90
47618;DHT22;33336;36.728;-4.414;2024-02-26T20:40:14;14.90;88.30
47618;DHT22;33336;36.728;-4.414;2024-02-26T20:45:21;14.90;88.30
47618;DHT22;33336;36.728;-4.414;2024-02-26T20:50:24;15.00;88.30
47618;DHT22;33336;36.728;-4.414;2024-02-26T20:55:28;14.80;89.00
47618;DHT22;33336;36.728;-4.414;2024-02-26T21:00:31;15.10;88.50
47618;DHT22;33336;36.728;-4.414;2024-02-26T21:05:34;15.20;88.30
47618;DHT22;33336;36.728;-4.414;2024-02-26T21:10:39;14.70;89.20
47618;DHT22;33336;36.728;-4.414;2024-02-26T21:15:43;14.90;88.60
47618;DHT22;33336;36.728;-4.414;2024-02-26T21:20:48;15.10;88.60
47618;DHT22;33336;36.728;-4.414;2024-02-26T21:25:52;14.80;88.40
47618;DHT22;33336;36.728;-4.414;2024-02-26T21:30:56;14.70;88.90
47618;DHT22;33336;36.728;-4.414;2024-02-26T21:35:59;14.70;89.10
47618;DHT22;33336;36.728;-4.414;2024-02-26T21:41:04;14.90;89.10
47618;DHT22;33336;36.728;-4.414;2024-02-26T21:46:07;14.70;89.40
47618;DHT22;33336;36.728;-4.414;2024-02-26T21:51:11;14.80;89.40
47618;DHT22;33336;36.728;-4.414;2024-02-26T21:56:15;14.70;89.30
47618;DHT22;33336;36.728;-4.414;2024-02-26T22:01:19;14.40;90.00
47618;DHT22;33336;36.728;-4.414;2024-02-26T22:06:22;14.60;90.10
47618;DHT22;33336;36.728;-4.414;2024-02-26T22:11:26;14.70;90.10
47618;DHT22;33336;36.728;-4.414;2024-02-26T22:16:29;14.40;90.40
47618;DHT22;33336;36.728;-4.414;2024-02-26T22:21:35;14.50;90.30
47618;DHT22;33336;36.728;-4.414;2024-02-26T22:26:39;14.30;90.70
47618;DHT22;33336;36.728;-4.414;2024-02-26T22:31:46;14.70;90.50
47618;DHT22;33336;36.728;-4.414;2024-02-26T22:36:53;14.80;90.40
47618;DHT22;33336;36.728;-4.414;2024-02-26T22:41:57;14.70;90.40
47618;DHT22;33336;36.728;-4.414;2024-02-26T22:47:01;14.50;90.60
47618;DHT22;33336;36.728;-4.414;2024-02-26T22:52:05;14.60;90.80
47618;DHT22;33336;36.728;-4.414;2024-02-26T22:57:10;14.40;91.10
47618;DHT22;33336;36.728;-4.414;2024-02-26T23:02:12;14.20;91.30
47618;DHT22;33336;36.728;-4.414;2024-02-26T23:07:16;14.40;91.30
47618;DHT22;33336;36.728;-4.414;2024-02-26T23:12:20;14.10;91.40
47618;DHT22;33336;36.728;-4.414;2024-02-26T23:17:23;13.90;91.80
47618;DHT22;33336;36.728;-4.414;2024-02-26T23:22:28;14.10;91.40
47618;DHT22;33336;36.728;-4.414;2024-02-26T23:27:32;14.20;91.40
47618;DHT22;33336;36.728;-4.414;2024-02-26T23:32:36;14.20;91.40
47618;DHT22;33336;36.728;-4.414;2024-02-26T23:37:40;14.20;90.90
47618;DHT22;33336;36.728;-4.414;2024-02-26T23:42:44;14.00;91.10
47618;DHT22;33336;36.728;-4.414;2024-02-26T23:47:47;13.90;91.00
47618;DHT22;33336;36.728;-4.414;2024-02-26T23:52:49;13.90;90.90
47618;DHT22;33336;36.728;-4.414;2024-02-26T23:57:54;13.90;90.90
